Time;durP1;ratioP1;P1;durP2;ratioP2;P2;SDS_P1;SDS_P2;PMS_P1;PMS_P2;Temp;Humidity;BMP_temperature;BMP_pressure;BME280_temperature;BME280_humidity;BME280_pressure;Samples;Min_cycle;Max_cycle;Signal;HPM_P1;HPM_P2
2021/11/02 00:00:48;;;;;;;11.88;6.25;;;;;;;9.36;nan;100334.03;5038525;28;20039;-52
2021/11/02 00:03:14;;;;;;;10.52;5.75;;;;;;;9.39;nan;100330.06;5044947;28;20025;-50
2021/11/02 00:05:39;;;;;;;8.80;4.93;;;;;;;9.35;nan;100329.75;5041715;28;20040;-53
2021/11/02 00:08:05;;;;;;;11.27;5.80;;;;;;;9.34;nan;100325.47;5039370;28;20063;-53
2021/11/02 00:10:32;;;;;;;9.30;5.07;;;;;;;9.29;nan;100317.38;5019737;28;20162;-53
2021/11/02 00:12:58;;;;;;;13.82;6.38;;;;;;;9.34;nan;100319.31;5040565;28;20021;-53
2021/11/02 00:15:27;;;;;;;11.65;5.80;;;;;;;9.31;nan;100311.75;5041745;28;20156;-52
2021/11/02 00:17:56;;;;;;;10.80;6.43;;;;;;;9.31;nan;100309.09;5040020;28;20119;-53
2021/11/02 00:20:22;;;;;;;11.57;6.05;;;;;;;9.29;nan;100305.84;5040289;28;20090;-52
2021/11/02 00:22:55;;;;;;;10.00;5.35;;;;;;;9.24;nan;100314.63;5037688;28;20155;-51
2021/11/02 00:25:22;;;;;;;14.55;6.10;;;;;;;9.19;nan;100308.44;5039594;28;20029;-51
2021/11/02 00:27:49;;;;;;;11.30;6.03;;;;;;;9.06;nan;100306.94;5039606;28;20029;-51
2021/11/02 00:30:15;;;;;;;11.02;5.75;;;;;;;9.04;nan;100314.41;5037548;28;20032;-53
2021/11/02 00:32:44;;;;;;;12.93;5.50;;;;;;;9.07;nan;100313.88;5040360;28;20550;-52
2021/11/02 00:35:11;;;;;;;10.10;5.30;;;;;;;9.09;nan;100311.78;5041105;28;20528;-53
2021/11/02 00:37:37;;;;;;;12.52;5.30;;;;;;;9.12;nan;100313.13;5040298;28;20031;-50
2021/11/02 00:40:06;;;;;;;7.75;4.70;;;;;;;9.09;nan;100307.25;5033970;28;20017;-53
2021/11/02 00:42:37;;;;;;;8.32;4.50;;;;;;;9.04;nan;100301.03;5037065;28;20478;-52
2021/11/02 00:45:07;;;;;;;9.30;4.43;;;;;;;8.92;nan;100300.34;5037836;28;20430;-53
2021/11/02 00:47:34;;;;;;;9.75;4.90;;;;;;;8.91;nan;100296.03;5037958;28;20058;-50
2021/11/02 00:50:01;;;;;;;10.52;4.65;;;;;;;9.03;nan;100289.53;5043892;28;20479;-53
2021/11/02 00:52:29;;;;;;;8.82;4.53;;;;;;;8.99;nan;100292.97;5039874;28;20438;-53
2021/11/02 00:54:55;;;;;;;7.95;4.20;;;;;;;9.06;nan;100285.56;5038188;28;20028;-53
2021/11/02 00:57:22;;;;;;;9.35;4.25;;;;;;;9.09;nan;100285.06;5037574;28;20032;-52
2021/11/02 00:59:48;;;;;;;9.25;4.07;;;;;;;9.05;nan;100290.09;5037638;28;20663;-53
2021/11/02 01:02:14;;;;;;;11.85;5.30;;;;;;;9.04;nan;100285.00;5038294;28;20188;-51
2021/11/02 01:04:40;;;;;;;9.40;4.85;;;;;;;9.07;nan;100287.16;5041370;28;20044;-53
2021/11/02 01:07:06;;;;;;;13.63;5.00;;;;;;;9.15;nan;100276.03;5034244;28;20029;-53
2021/11/02 01:09:32;;;;;;;8.10;4.45;;;;;;;9.22;nan;100273.19;5040773;28;20549;-52
2021/11/02 01:11:57;;;;;;;9.77;4.65;;;;;;;9.26;nan;100275.09;5027088;28;20032;-54
2021/11/02 01:14:23;;;;;;;11.70;5.05;;;;;;;9.26;nan;100267.06;5040282;28;20043;-52
2021/11/02 01:16:48;;;;;;;11.30;4.45;;;;;;;9.22;nan;100267.84;5039836;28;20137;-53
2021/11/02 01:19:14;;;;;;;8.75;4.22;;;;;;;9.19;nan;100266.47;5041364;28;20560;-53
2021/11/02 01:21:39;;;;;;;9.73;4.72;;;;;;;9.11;nan;100261.56;5027780;28;20037;-52
2021/11/02 01:24:05;;;;;;;9.25;4.20;;;;;;;9.11;nan;100258.06;5040821;28;20032;-53
2021/11/02 01:26:30;;;;;;;10.98;5.35;;;;;;;9.07;nan;100255.91;5039100;28;20082;-53
2021/11/02 01:28:56;;;;;;;10.35;5.05;;;;;;;9.05;nan;100252.69;5036332;28;20585;-53
2021/11/02 01:31:21;;;;;;;8.70;4.40;;;;;;;9.12;nan;100254.34;5040005;28;20036;-52
2021/11/02 01:33:47;;;;;;;10.10;5.10;;;;;;;9.07;nan;100252.44;5038894;28;20403;-54
2021/11/02 01:36:13;;;;;;;12.20;4.55;;;;;;;9.10;nan;100249.25;5039986;28;20052;-50
2021/11/02 01:38:40;;;;;;;9.77;5.20;;;;;;;9.11;nan;100247.38;5036801;28;20072;-53
2021/11/02 01:41:06;;;;;;;13.20;5.40;;;;;;;9.19;nan;100241.59;5039242;28;20053;-52
2021/11/02 01:43:32;;;;;;;10.77;5.30;;;;;;;9.24;nan;100247.00;5038088;28;20027;-53
2021/11/02 01:46:00;;;;;;;10.45;5.07;;;;;;;9.27;nan;100244.63;5036097;28;20057;-51
2021/11/02 01:48:26;;;;;;;9.63;4.50;;;;;;;9.32;nan;100242.00;5035912;28;20025;-53
2021/11/02 01:50:52;;;;;;;9.73;4.60;;;;;;;9.37;nan;100238.59;5037750;28;20510;-53
2021/11/02 01:53:18;;;;;;;12.20;6.13;;;;;;;9.39;nan;100237.28;5041815;28;20094;-52
2021/11/02 01:55:44;;;;;;;8.55;5.30;;;;;;;9.40;nan;100238.09;5035117;28;20034;-50
2021/11/02 01:58:12;;;;;;;11.05;5.35;;;;;;;9.39;nan;100237.28;5034349;28;20041;-50
2021/11/02 02:00:39;;;;;;;12.40;6.28;;;;;;;9.33;nan;100234.78;5038197;28;20024;-50
2021/11/02 02:03:31;;;;;;;11.68;5.35;;;;;;;9.16;nan;100231.44;5031713;28;20059;-51
2021/11/02 02:06:23;;;;;;;12.00;5.13;;;;;;;9.16;nan;100232.22;5042610;28;20025;-52
2021/11/02 02:08:56;;;;;;;8.18;4.53;;;;;;;9.16;nan;100231.44;5036081;28;20036;-53
2021/11/02 02:11:35;;;;;;;9.65;5.00;;;;;;;9.13;nan;100232.72;5025392;28;20055;-52
2021/11/02 02:14:19;;;;;;;9.88;4.68;;;;;;;9.14;nan;100223.63;5040253;28;20141;-53
2021/11/02 02:16:47;;;;;;;8.45;4.72;;;;;;;9.05;nan;100217.13;5035626;28;20673;-51
2021/11/02 02:19:34;;;;;;;10.73;5.28;;;;;;;8.94;nan;100223.41;5033350;28;20029;-51
2021/11/02 02:22:20;;;;;;;8.85;4.55;;;;;;;8.95;nan;100219.69;5035385;28;20029;-50
2021/11/02 02:25:18;;;;;;;6.78;4.00;;;;;;;8.96;nan;100218.63;5042469;28;20118;-51
2021/11/02 02:28:13;;;;;;;7.38;4.47;;;;;;;9.01;nan;100227.53;5033801;28;20032;-50
2021/11/02 02:30:48;;;;;;;7.78;4.53;;;;;;;9.10;nan;100225.19;5034272;28;20076;-50
2021/11/02 02:33:15;;;;;;;12.25;5.15;;;;;;;9.19;nan;100220.22;5042138;28;20082;-51
2021/11/02 02:35:44;;;;;;;11.18;5.30;;;;;;;9.21;nan;100220.78;5039085;28;20025;-50
2021/11/02 02:38:10;;;;;;;11.38;5.75;;;;;;;9.19;nan;100221.03;5039754;28;20029;-50
2021/11/02 02:40:37;;;;;;;13.65;5.85;;;;;;;9.21;nan;100218.09;5037381;28;20079;-52
2021/11/02 02:43:04;;;;;;;11.77;6.05;;;;;;;9.22;nan;100220.53;5040024;28;20037;-51
2021/11/02 02:45:33;;;;;;;13.93;6.30;;;;;;;9.25;nan;100217.34;5042398;28;20425;-53
2021/11/02 02:48:00;;;;;;;10.70;5.20;;;;;;;9.27;nan;100223.25;5034154;28;20109;-52
2021/11/02 02:50:26;;;;;;;14.88;6.22;;;;;;;9.29;nan;100215.78;5037488;28;20499;-51
2021/11/02 02:52:53;;;;;;;11.70;5.78;;;;;;;9.27;nan;100217.91;5046340;28;20035;-52
2021/11/02 02:55:20;;;;;;;12.65;5.80;;;;;;;9.27;nan;100212.56;5041501;28;20044;-51
2021/11/02 02:57:47;;;;;;;15.45;6.97;;;;;;;9.28;nan;100214.16;5038981;28;20025;-50
2021/11/02 03:00:13;;;;;;;14.40;6.35;;;;;;;9.22;nan;100214.38;5037539;28;20116;-53
2021/11/02 03:02:41;;;;;;;12.88;6.80;;;;;;;9.24;nan;100220.28;5042016;28;20612;-51
2021/11/02 03:05:07;;;;;;;16.52;6.50;;;;;;;9.22;nan;100215.19;5045258;28;20368;-52
2021/11/02 03:07:34;;;;;;;16.95;7.20;;;;;;;9.22;nan;100219.72;5042626;28;20033;-54
2021/11/02 03:09:59;;;;;;;14.63;6.40;;;;;;;9.20;nan;100208.47;5040485;28;20104;-53
2021/11/02 03:12:30;;;;;;;11.65;5.32;;;;;;;9.09;nan;100218.25;5040102;28;20037;-53
2021/11/02 03:18:13;;;;;;;11.23;4.90;;;;;;;9.16;nan;100216.19;5040984;28;20491;-53
2021/11/02 05:10:50;;;;;;;4.57;2.00;;;;;;;9.12;nan;100174.16;5040619;28;20881;-52
2021/11/02 05:13:33;;;;;;;5.25;2.20;;;;;;;9.09;nan;100172.81;5055784;28;20052;-53
2021/11/02 05:47:00;;;;;;;7.45;3.45;;;;;;;8.87;nan;100166.69;5061318;28;20030;-53
2021/11/02 05:54:45;;;;;;;8.63;3.55;;;;;;;8.79;nan;100154.59;5054448;28;20123;-51
2021/11/02 05:59:47;;;;;;;11.55;4.53;;;;;;;8.78;nan;100160.97;5052348;28;20086;-53
2021/11/02 06:07:35;;;;;;;8.85;4.35;;;;;;;8.79;nan;100151.91;5051116;28;20079;-51
2021/11/02 06:10:16;;;;;;;6.35;4.05;;;;;;;8.82;nan;100155.97;5049003;28;20056;-53
2021/11/02 06:29:28;;;;;;;8.13;4.35;;;;;;;8.91;nan;100160.59;5056429;28;20044;-52
2021/11/02 06:32:04;;;;;;;11.32;5.35;;;;;;;8.89;nan;100161.91;5058638;28;20301;-53
2021/11/02 06:35:17;;;;;;;12.10;5.28;;;;;;;8.84;nan;100161.88;5061934;28;20036;-52
2021/11/02 06:43:56;;;;;;;7.55;4.47;;;;;;;8.89;nan;100161.91;5062233;28;20148;-51
2021/11/02 06:49:25;;;;;;;7.53;4.35;;;;;;;8.92;nan;100164.06;5063382;28;20489;-53
2021/11/02 06:54:30;;;;;;;8.45;4.53;;;;;;;8.95;nan;100163.56;5059352;28;20444;-52
2021/11/02 07:17:35;;;;;;;9.00;4.23;;;;;;;9.04;nan;100181.59;5060570;28;20036;-50
2021/11/02 08:47:17;;;;;;;8.75;4.72;;;;;;;9.53;nan;100148.63;5060499;28;20038;-50
2021/11/02 08:49:46;;;;;;;6.22;3.72;;;;;;;9.62;nan;100144.41;5058612;28;20032;-52
2021/11/02 08:52:13;;;;;;;6.18;3.78;;;;;;;9.64;nan;100144.94;5060931;28;20589;-49
2021/11/02 08:54:41;;;;;;;14.80;4.50;;;;;;;9.67;nan;100145.22;5058594;28;20021;-52
2021/11/02 08:57:07;;;;;;;10.57;4.88;;;;;;;9.71;nan;100145.56;5061202;28;20478;-51
2021/11/02 08:59:33;;;;;;;11.52;4.40;;;;;;;9.71;nan;100145.56;5060563;28;20287;-50
2021/11/02 09:02:01;;;;;;;10.07;3.72;;;;;;;9.62;nan;100144.41;5060220;28;20032;-49
2021/11/02 09:04:32;;;;;;;5.22;3.03;;;;;;;9.66;nan;100148.97;5060465;28;20028;-50
2021/11/02 09:07:05;;;;;;;4.38;2.67;;;;;;;9.76;nan;100134.88;5057672;28;20485;-53
2021/11/02 09:09:36;;;;;;;9.27;3.72;;;;;;;9.81;nan;100134.09;5056760;28;20494;-50
2021/11/02 09:12:04;;;;;;;8.02;3.30;;;;;;;9.86;nan;100134.94;5060266;28;20134;-50
2021/11/02 09:14:36;;;;;;;5.65;3.60;;;;;;;9.90;nan;100136.06;5060849;28;20032;-50
2021/11/02 09:17:04;;;;;;;5.68;3.80;;;;;;;9.77;nan;100141.84;5059339;28;20029;-49
2021/11/02 09:19:32;;;;;;;3.17;2.83;;;;;;;9.84;nan;100137.06;5060441;28;20024;-51
2021/11/02 09:21:58;;;;;;;6.63;3.53;;;;;;;9.90;nan;100146.75;5058921;28;20024;-50
2021/11/02 09:24:24;;;;;;;5.10;3.33;;;;;;;10.00;nan;100144.13;5059323;28;20504;-52
2021/11/02 09:26:50;;;;;;;3.47;2.70;;;;;;;9.99;nan;100137.16;5057858;28;20374;-51
2021/11/02 09:29:18;;;;;;;5.45;2.53;;;;;;;10.05;nan;100134.50;5059483;28;20021;-50
2021/11/02 09:31:45;;;;;;;2.60;2.10;;;;;;;10.14;nan;100135.63;5057860;28;20028;-49
2021/11/02 09:34:11;;;;;;;5.07;2.15;;;;;;;10.22;nan;100132.50;5059707;28;20028;-51
2021/11/02 09:36:45;;;;;;;3.10;2.03;;;;;;;10.22;nan;100135.97;5060448;28;20474;-49
2021/11/02 09:39:12;;;;;;;3.50;2.30;;;;;;;10.23;nan;100142.13;5061069;28;20024;-49
2021/11/02 09:41:44;;;;;;;2.53;1.83;;;;;;;10.19;nan;100138.34;5052526;28;20028;-51
2021/11/02 09:44:32;;;;;;;3.15;1.70;;;;;;;10.24;nan;100139.22;5057281;28;20024;-51
2021/11/02 09:47:36;;;;;;;2.15;1.65;;;;;;;10.16;nan;100138.84;5058100;28;20032;-50
2021/11/02 09:50:07;;;;;;;2.33;1.40;;;;;;;10.23;nan;100145.63;5062564;28;20101;-52
2021/11/02 09:52:57;;;;;;;2.38;1.55;;;;;;;10.35;nan;100144.59;5061490;28;20032;-52
2021/11/02 09:55:42;;;;;;;3.55;1.98;;;;;;;10.35;nan;100142.72;5056561;28;20420;-51
2021/11/02 09:58:56;;;;;;;1.48;1.30;;;;;;;10.39;nan;100143.81;5063760;28;20032;-53
2021/11/02 10:01:37;;;;;;;2.17;1.60;;;;;;;10.41;nan;100143.56;5058876;28;20024;-50
2021/11/02 10:04:21;;;;;;;2.90;1.58;;;;;;;10.37;nan;100134.44;5063319;28;20123;-50
2021/11/02 10:07:18;;;;;;;3.00;1.90;;;;;;;10.44;nan;100135.81;5056493;28;20474;-54
2021/11/02 10:10:13;;;;;;;1.90;1.60;;;;;;;10.35;nan;100137.38;5061472;28;20036;-51
2021/11/02 10:12:51;;;;;;;2.75;1.58;;;;;;;10.35;nan;100142.72;5058471;28;20024;-50
2021/11/02 10:15:40;;;;;;;2.25;1.48;;;;;;;10.43;nan;100139.56;5107985;22;20517;-81
2021/11/02 10:18:07;;;;;;;1.50;1.25;;;;;;;10.22;nan;100140.53;5116380;27;20032;-79
2021/11/02 10:20:55;;;;;;;2.63;1.40;;;;;;;10.26;nan;100126.38;5114406;27;20033;-78
2021/11/02 10:24:10;;;;;;;2.60;1.60;;;;;;;10.33;nan;100131.47;5082599;28;20195;-78
2021/11/02 10:26:36;;;;;;;1.88;1.25;;;;;;;10.40;nan;100134.72;5080306;28;20584;-82
2021/11/02 10:29:20;;;;;;;2.28;1.30;;;;;;;10.37;nan;100129.88;5081120;28;20028;-79
2021/11/02 10:31:54;;;;;;;2.45;1.33;;;;;;;10.38;nan;100136.84;5078306;28;20131;-79
2021/11/02 10:34:30;;;;;;;;;;;;;;;10.36;nan;100133.63;5119030;27;20028;-78
2021/11/02 10:37:15;;;;;;;3.67;1.30;;;;;;;10.37;nan;100134.44;5121735;27;20589;-80
2021/11/02 10:40:08;;;;;;;1.63;1.30;;;;;;;10.39;nan;100133.09;5090070;28;20124;-78
2021/11/02 10:43:00;;;;;;;2.78;1.83;;;;;;;10.65;nan;100133.22;5083919;28;20074;-79
2021/11/02 10:45:29;;;;;;;1.52;1.02;;;;;;;10.71;nan;100129.47;5078958;28;20046;-79
2021/11/02 10:48:10;;;;;;;2.97;0.93;;;;;;;10.82;nan;100133.81;5095340;28;20055;-79
2021/11/02 10:50:47;;;;;;;1.20;0.70;;;;;;;10.92;nan;100136.50;5091340;28;20031;-81
2021/11/02 10:53:28;;;;;;;1.13;1.00;;;;;;;11.03;nan;100132.75;5096030;28;20035;-78
2021/11/02 10:56:14;;;;;;;1.92;0.93;;;;;;;10.92;nan;100138.38;5093268;28;20061;-78
2021/11/02 10:58:47;;;;;;;1.90;1.10;;;;;;;10.62;nan;100125.72;5083490;28;20024;-79
2021/11/02 11:01:13;;;;;;;1.63;0.90;;;;;;;10.64;nan;100134.28;5080820;28;20028;-80
2021/11/02 11:03:41;;;;;;;1.80;1.38;;;;;;;10.63;nan;100138.84;5097085;28;20377;-80
2021/11/02 11:06:12;;;;;;;1.27;0.80;;;;;;;10.26;nan;100126.38;5125192;27;20028;-80
2021/11/02 11:08:40;;;;;;;1.55;1.15;;;;;;;9.90;nan;100127.22;5088339;28;20493;-80
2021/11/02 11:11:11;;;;;;;1.10;1.00;;;;;;;9.90;nan;100128.03;5093309;28;20110;-79
2021/11/02 11:13:38;;;;;;;1.45;1.10;;;;;;;10.04;nan;100131.03;5083288;28;20854;-79
2021/11/02 11:16:12;;;;;;;2.13;1.00;;;;;;;9.99;nan;100131.81;5103693;27;20027;-78
2021/11/02 11:19:01;;;;;;;1.55;0.75;;;;;;;9.87;nan;100131.19;5088183;28;20025;-79
2021/11/02 11:21:27;;;;;;;1.98;1.00;;;;;;;9.88;nan;100132.84;5089352;27;20089;-81
2021/11/02 11:24:11;;;;;;;0.75;0.73;;;;;;;9.94;nan;100120.28;5095228;28;20031;-78
2021/11/02 11:26:46;;;;;;;1.13;0.90;;;;;;;10.07;nan;100124.38;5099668;28;20062;-80
2021/11/02 11:29:20;;;;;;;0.90;0.70;;;;;;;9.99;nan;100112.28;5091288;28;20028;-78
2021/11/02 11:31:49;;;;;;;1.88;0.70;;;;;;;10.02;nan;100119.78;5094895;28;20402;-80
2021/11/02 11:34:16;;;;;;;1.58;0.80;;;;;;;10.25;nan;100121.28;5084958;28;20024;-79
2021/11/02 11:36:48;;;;;;;1.35;0.80;;;;;;;10.32;nan;100119.16;5085371;28;20471;-80
2021/11/02 11:39:19;;;;;;;0.80;0.68;;;;;;;10.28;nan;100126.09;5089680;28;20027;-79
2021/11/02 11:41:49;;;;;;;1.58;0.70;;;;;;;10.24;nan;100122.34;5089474;28;20107;-79
2021/11/02 11:44:18;;;;;;;1.13;0.85;;;;;;;10.30;nan;100118.63;5074054;28;20021;-79
2021/11/02 11:46:46;;;;;;;0.88;0.80;;;;;;;10.51;nan;100119.50;5097121;27;20123;-80
2021/11/02 11:49:22;;;;;;;3.03;0.90;;;;;;;10.72;nan;100125.72;5088425;28;20020;-80
2021/11/02 11:51:54;;;;;;;0.88;0.70;;;;;;;10.93;nan;100113.16;5096395;28;20023;-79
2021/11/02 11:54:20;;;;;;;1.92;0.88;;;;;;;11.06;nan;100120.69;5095081;28;20015;-79
2021/11/02 11:56:48;;;;;;;0.98;0.90;;;;;;;11.09;nan;100126.34;5091555;28;20039;-80
2021/11/02 11:59:18;;;;;;;2.88;1.42;;;;;;;11.08;nan;100135.44;5086797;28;20047;-79
2021/11/02 12:01:57;;;;;;;4.90;1.50;;;;;;;10.97;nan;100136.53;5096298;28;20080;-79
2021/11/02 12:04:32;;;;;;;1.80;1.20;;;;;;;11.01;nan;100134.09;5090881;28;20157;-79
2021/11/02 12:07:31;;;;;;;2.80;1.27;;;;;;;11.01;nan;100134.91;5092893;28;20028;-79
2021/11/02 12:10:08;;;;;;;3.08;1.05;;;;;;;11.01;nan;100134.91;5113002;27;20020;-79
2021/11/02 12:12:35;;;;;;;2.72;1.35;;;;;;;11.05;nan;100127.94;5085586;28;20555;-79
2021/11/02 12:15:08;;;;;;;2.22;1.00;;;;;;;11.08;nan;100129.28;5092361;28;20036;-80
2021/11/02 12:17:34;;;;;;;2.65;1.25;;;;;;;11.11;nan;100124.19;5100674;28;20050;-78
2021/11/02 12:20:12;;;;;;;2.58;1.40;;;;;;;11.11;nan;100129.56;5104678;27;20063;-80
2021/11/02 12:22:51;;;;;;;2.13;0.93;;;;;;;11.12;nan;100131.16;5071531;28;20039;-79
2021/11/02 12:25:28;;;;;;;0.88;0.88;;;;;;;11.17;nan;100127.69;5096066;28;20015;-78
2021/11/02 12:27:55;;;;;;;1.25;0.90;;;;;;;11.19;nan;100126.34;5101830;28;20018;-78
2021/11/02 12:30:22;;;;;;;1.10;0.85;;;;;;;11.14;nan;100123.69;5090617;28;20020;-78
2021/11/02 12:32:51;;;;;;;1.60;1.38;;;;;;;11.09;nan;100137.06;5098142;28;20100;-81
2021/11/02 12:35:21;;;;;;;2.28;1.17;;;;;;;11.14;nan;100133.59;5095660;27;20024;-78
2021/11/02 12:37:56;;;;;;;1.33;0.98;;;;;;;11.15;nan;100130.66;5089790;28;20664;-77
2021/11/02 12:40:29;;;;;;;4.20;1.30;;;;;;;11.19;nan;100145.13;5097355;28;20651;-77
2021/11/02 12:42:55;;;;;;;1.20;1.00;;;;;;;11.20;nan;100133.31;5089679;28;20564;-77
2021/11/02 12:45:24;;;;;;;1.60;1.10;;;;;;;11.17;nan;100139.22;5095752;28;20784;-78
2021/11/02 12:47:51;;;;;;;1.75;1.00;;;;;;;11.11;nan;100136.78;5094587;28;20024;-78
2021/11/02 12:50:19;;;;;;;1.92;1.02;;;;;;;11.09;nan;100126.34;5107738;27;20482;-77
2021/11/02 12:52:46;;;;;;;1.42;1.00;;;;;;;11.05;nan;100135.19;5108364;27;20165;-78
2021/11/02 12:55:13;;;;;;;1.52;1.17;;;;;;;10.94;nan;100137.03;5092012;28;20023;-80
2021/11/02 12:57:44;;;;;;;2.33;1.40;;;;;;;10.78;nan;100127.38;5088684;28;20508;-78
2021/11/02 13:00:26;;;;;;;2.22;1.15;;;;;;;10.76;nan;100137.50;5085233;28;20473;-79
2021/11/02 13:03:02;;;;;;;1.98;1.25;;;;;;;10.64;nan;100135.09;5085530;28;20023;-79
2021/11/02 13:05:30;;;;;;;1.55;1.33;;;;;;;10.40;nan;100133.91;5082512;28;20032;-78
2021/11/02 13:08:14;;;;;;;2.03;1.10;;;;;;;10.09;nan;100138.28;5099198;28;20489;-79
2021/11/02 13:10:41;;;;;;;1.90;1.35;;;;;;;10.25;nan;100140.03;5084022;28;20061;-78
2021/11/02 13:13:08;;;;;;;2.72;1.30;;;;;;;10.18;nan;100136.72;5073486;28;20060;-76
2021/11/02 13:15:53;;;;;;;2.50;1.33;;;;;;;10.11;nan;100141.53;5078137;28;20381;-76
2021/11/02 13:18:31;;;;;;;2.05;1.45;;;;;;;10.09;nan;100138.28;5085978;28;20055;-77
2021/11/02 13:21:22;;;;;;;1.92;1.42;;;;;;;9.92;nan;100139.28;5090164;28;20035;-76
2021/11/02 13:24:11;;;;;;;2.67;1.50;;;;;;;9.70;nan;100130.56;5087438;28;20031;-76
2021/11/02 13:26:45;;;;;;;3.53;2.00;;;;;;;9.63;nan;100136.13;5093623;28;20054;-75
2021/11/02 13:29:16;;;;;;;3.03;1.88;;;;;;;9.76;nan;100140.22;5093534;28;20034;-76
2021/11/02 13:31:43;;;;;;;2.25;1.80;;;;;;;9.64;nan;100144.94;5083985;28;20466;-76
2021/11/02 13:34:15;;;;;;;5.10;2.33;;;;;;;9.61;nan;100142.78;5084180;28;20062;-76
2021/11/02 13:36:41;;;;;;;5.53;2.47;;;;;;;9.62;nan;100147.88;5090325;28;20096;-76
2021/11/02 13:39:07;;;;;;;3.58;2.33;;;;;;;9.71;nan;100147.44;5086804;28;20035;-76
2021/11/02 13:41:35;;;;;;;3.80;2.33;;;;;;;9.76;nan;100137.56;5088202;28;20031;-76
2021/11/02 13:44:05;;;;;;;3.25;2.53;;;;;;;9.60;nan;100146.53;5091227;28;20036;-76
2021/11/02 13:46:45;;;;;;;4.22;2.67;;;;;;;9.68;nan;100146.03;5083520;28;20109;-76
2021/11/02 13:49:12;;;;;;;4.55;2.42;;;;;;;9.63;nan;100152.16;5103659;27;20677;-76
2021/11/02 13:51:38;;;;;;;2.45;1.90;;;;;;;9.57;nan;100147.84;5092231;28;20138;-76
2021/11/02 13:54:05;;;;;;;4.60;2.55;;;;;;;9.67;nan;100141.75;5081961;28;20032;-78
2021/11/02 13:56:36;;;;;;;3.55;2.65;;;;;;;9.73;nan;100148.78;5080299;28;20024;-77
2021/11/02 13:59:05;;;;;;;3.78;2.38;;;;;;;9.78;nan;100143.44;5088643;28;20677;-77
2021/11/02 14:01:45;;;;;;;4.93;2.42;;;;;;;9.79;nan;100155.75;5080519;28;20473;-77
2021/11/02 14:04:15;;;;;;;4.22;2.28;;;;;;;9.86;nan;100147.50;5079457;28;20024;-78
2021/11/02 14:06:44;;;;;;;4.93;2.50;;;;;;;9.86;nan;100139.47;5086893;28;20036;-77
2021/11/02 14:09:13;;;;;;;2.63;2.40;;;;;;;9.87;nan;100141.88;5066333;28;20036;-77
2021/11/02 14:11:39;;;;;;;4.72;2.40;;;;;;;9.95;nan;100140.63;5113010;27;20017;-77
2021/11/02 14:14:11;;;;;;;2.65;2.13;;;;;;;9.86;nan;100145.63;5076128;28;20655;-78
2021/11/02 14:16:42;;;;;;;5.22;2.22;;;;;;;9.87;nan;100139.22;5072028;28;20035;-77
2021/11/02 14:19:39;;;;;;;3.42;2.47;;;;;;;9.79;nan;100139.72;5078753;28;20101;-77
2021/11/02 14:22:07;;;;;;;4.18;2.38;;;;;;;9.90;nan;100143.28;5086294;28;20098;-77
2021/11/02 14:24:44;;;;;;;3.97;2.80;;;;;;;9.83;nan;100138.13;5078921;28;20115;-77
2021/11/02 14:27:20;;;;;;;4.22;2.20;;;;;;;9.81;nan;100139.44;5084025;28;20024;-77
2021/11/02 14:29:57;;;;;;;3.45;2.00;;;;;;;9.74;nan;100149.59;5082774;28;20058;-78
2021/11/02 14:32:38;;;;;;;10.23;2.00;;;;;;;9.68;nan;100149.53;5085901;28;20039;-77
2021/11/02 14:35:04;;;;;;;2.75;1.65;;;;;;;9.66;nan;100142.81;5069789;28;20456;-77
2021/11/02 14:38:01;;;;;;;2.40;1.67;;;;;;;9.44;nan;100152.81;5084314;28;20032;-76
2021/11/02 14:40:40;;;;;;;4.63;1.70;;;;;;;9.50;nan;100154.47;5077296;28;20077;-76
2021/11/02 14:43:12;;;;;;;2.58;1.95;;;;;;;9.20;nan;100147.81;5083855;28;20088;-77
2021/11/02 14:45:39;;;;;;;2.92;1.90;;;;;;;9.15;nan;100145.06;5079799;28;20028;-77
2021/11/02 14:48:22;;;;;;;3.70;1.50;;;;;;;8.94;nan;100138.72;5078540;28;20032;-77
2021/11/02 14:50:55;;;;;;;5.30;2.08;;;;;;;8.84;nan;100143.16;5089108;28;20089;-77
2021/11/02 14:53:45;;;;;;;4.35;2.60;;;;;;;8.88;nan;100139.72;5090969;28;20036;-75
2021/11/02 14:56:17;;;;;;;3.20;2.58;;;;;;;8.84;nan;100143.97;5072954;28;20467;-76
2021/11/02 14:58:52;;;;;;;3.33;2.60;;;;;;;8.93;nan;100149.66;5074544;28;20119;-76
2021/11/02 15:01:37;;;;;;;4.43;2.47;;;;;;;9.12;nan;100142.09;5082836;28;20066;-76
2021/11/02 15:04:07;;;;;;;2.78;1.73;;;;;;;9.23;nan;100144.63;5092527;28;20457;-76
2021/11/02 15:06:35;;;;;;;2.20;1.92;;;;;;;9.28;nan;100151.88;5079419;28;20032;-76
2021/11/02 15:09:05;;;;;;;2.78;2.00;;;;;;;9.29;nan;100146.28;5081244;28;20034;-76
2021/11/02 15:11:30;;;;;;;2.95;2.13;;;;;;;9.33;nan;100144.69;5082060;28;20397;-76
2021/11/02 15:14:05;;;;;;;2.72;1.88;;;;;;;9.25;nan;100150.50;5077948;28;20034;-76
2021/11/02 15:16:32;;;;;;;2.92;2.15;;;;;;;9.27;nan;100137.69;5082356;28;20098;-76
2021/11/02 15:19:03;;;;;;;2.15;1.85;;;;;;;9.23;nan;100141.94;5085598;28;20035;-76
2021/11/02 15:21:33;;;;;;;3.30;2.40;;;;;;;9.13;nan;100143.72;5087059;28;20036;-76
2021/11/02 15:24:06;;;;;;;3.70;1.92;;;;;;;9.16;nan;100141.34;5097707;28;20034;-76
2021/11/02 15:27:01;;;;;;;2.78;2.05;;;;;;;9.05;nan;100155.66;5102887;28;20032;-76
2021/11/02 15:29:37;;;;;;;3.30;2.30;;;;;;;8.99;nan;100148.69;5055644;28;20040;-76
2021/11/02 15:32:10;;;;;;;4.63;2.30;;;;;;;8.96;nan;100149.97;5091453;28;20023;-76
2021/11/02 15:34:45;;;;;;;2.72;2.03;;;;;;;8.96;nan;100146.47;5116358;27;20028;-77
2021/11/02 15:37:41;;;;;;;3.03;2.35;;;;;;;8.93;nan;100147.78;5088999;28;20436;-77
2021/11/02 15:40:20;;;;;;;3.95;2.67;;;;;;;8.90;nan;100147.50;5097371;28;20485;-76
2021/11/02 15:42:47;;;;;;;3.42;2.75;;;;;;;8.92;nan;100153.38;5086230;28;20047;-77
2021/11/02 15:45:19;;;;;;;4.80;3.20;;;;;;;8.92;nan;100156.06;5098080;28;20019;-76
2021/11/02 15:47:49;;;;;;;6.95;3.55;;;;;;;8.76;nan;100158.56;5087061;28;20024;-76
2021/11/02 15:50:22;;;;;;;7.13;3.92;;;;;;;8.58;nan;100160.75;5100373;27;20024;-77
2021/11/02 15:52:49;;;;;;;8.07;4.45;;;;;;;8.44;nan;100161.16;5089869;28;20024;-77
2021/11/02 15:55:24;;;;;;;8.30;4.18;;;;;;;8.35;nan;100159.94;5081192;28;20888;-77
2021/11/02 15:57:54;;;;;;;7.03;4.00;;;;;;;8.16;nan;100159.41;5083420;28;20027;-77
2021/11/02 16:00:25;;;;;;;9.75;4.57;;;;;;;8.05;nan;100156.81;5088208;28;20569;-77
2021/11/02 16:02:51;;;;;;;4.00;3.15;;;;;;;8.02;nan;100160.78;5118412;27;20028;-76
2021/11/02 16:05:29;;;;;;;7.15;3.92;;;;;;;7.93;nan;100158.81;5088054;28;20031;-76
2021/11/02 16:07:56;;;;;;;4.65;3.47;;;;;;;7.72;nan;100169.16;5079271;28;20614;-76
2021/11/02 16:10:33;;;;;;;8.27;4.00;;;;;;;7.69;nan;100168.81;5084114;28;20042;-76
2021/11/02 16:13:07;;;;;;;6.05;3.50;;;;;;;7.62;nan;100162.84;5095029;28;20053;-76
2021/11/02 16:15:35;;;;;;;5.07;3.63;;;;;;;7.58;nan;100168.69;5092158;28;20019;-76
2021/11/02 16:18:04;;;;;;;6.80;4.57;;;;;;;7.57;nan;100172.41;5089735;28;20024;-76
2021/11/02 16:20:33;;;;;;;7.45;4.78;;;;;;;7.57;nan;100177.72;5106167;27;20032;-76
2021/11/02 16:23:04;;;;;;;5.75;4.05;;;;;;;7.63;nan;100180.47;5073708;28;20444;-76
2021/11/02 16:25:33;;;;;;;8.00;4.55;;;;;;;7.68;nan;100183.22;5083855;28;20041;-77
2021/11/02 16:28:01;;;;;;;6.05;4.15;;;;;;;7.76;nan;100175.63;5073473;28;20266;-76
2021/11/02 16:30:31;;;;;;;8.73;4.25;;;;;;;7.71;nan;100177.38;5085152;28;20031;-77
2021/11/02 16:32:58;;;;;;;8.20;4.47;;;;;;;7.72;nan;100179.84;5074041;28;20941;-76
2021/11/02 16:35:35;;;;;;;6.13;4.07;;;;;;;7.75;nan;100183.88;5097125;27;20117;-77
2021/11/02 16:38:19;;;;;;;9.07;4.47;;;;;;;7.80;nan;100186.63;5078432;28;20035;-77
2021/11/02 16:40:47;;;;;;;5.35;3.90;;;;;;;7.94;nan;100187.09;5084784;28;20763;-77
2021/11/02 16:43:12;;;;;;;7.68;5.20;;;;;;;8.03;nan;100186.41;5080011;28;20182;-76
2021/11/02 16:45:38;;;;;;;7.55;4.97;;;;;;;8.05;nan;100180.84;5091081;28;20024;-77
2021/11/02 16:48:07;;;;;;;10.52;5.47;;;;;;;8.04;nan;100182.69;5089397;28;20293;-76
2021/11/02 16:50:37;;;;;;;12.23;6.47;;;;;;;8.11;nan;100186.03;5088222;28;20500;-76
2021/11/02 16:53:11;;;;;;;32.95;14.13;;;;;;;8.13;nan;100194.59;5114337;27;20040;-76
2021/11/02 16:55:41;;;;;;;32.80;13.13;;;;;;;8.22;nan;100192.28;5084350;28;20501;-77
2021/11/02 16:58:20;;;;;;;57.30;21.70;;;;;;;8.10;nan;100197.75;5085147;28;20092;-77
2021/11/02 17:00:47;;;;;;;61.08;22.88;;;;;;;8.11;nan;100194.03;5074721;28;20103;-77
2021/11/02 17:03:20;;;;;;;22.00;9.52;;;;;;;8.16;nan;100201.28;5087031;28;20031;-77
2021/11/02 17:05:47;;;;;;;15.25;7.22;;;;;;;8.19;nan;100200.78;5087113;28;20028;-77